sensor_id;sensor_type;location;lat;lon;timestamp;pressure;altitude;pressure_sealevel;temperature;humidity
18988;BME280;5494;51.796;10.952;2022-12-29T00:01:08;97898.84;;;8.57;100.00
18988;BME280;5494;51.796;10.952;2022-12-29T00:03:37;97877.53;;;8.52;100.00
18988;BME280;5494;51.796;10.952;2022-12-29T00:06:05;97878.00;;;8.58;100.00
18988;BME280;5494;51.796;10.952;2022-12-29T00:08:33;97855.63;;;8.57;100.00
18988;BME280;5494;51.796;10.952;2022-12-29T00:11:14;97867.53;;;8.60;100.00
18988;BME280;5494;51.796;10.952;2022-12-29T00:13:42;97871.97;;;8.58;100.00
18988;BME280;5494;51.796;10.952;2022-12-29T00:16:31;97884.13;;;8.57;100.00
18988;BME280;5494;51.796;10.952;2022-12-29T00:19:00;97887.53;;;8.58;100.00
18988;BME280;5494;51.796;10.952;2022-12-29T00:21:29;97886.72;;;8.57;100.00
18988;BME280;5494;51.796;10.952;2022-12-29T00:24:17;97896.69;;;8.63;100.00
18988;BME280;5494;51.796;10.952;2022-12-29T00:27:12;97914.56;;;8.68;100.00
18988;BME280;5494;51.796;10.952;2022-12-29T00:29:59;97918.16;;;8.65;100.00
18988;BME280;5494;51.796;10.952;2022-12-29T00:32:44;97912.72;;;8.70;100.00
18988;BME280;5494;51.796;10.952;2022-12-29T00:35:35;97895.03;;;8.77;100.00
18988;BME280;5494;51.796;10.952;2022-12-29T00:38:09;97903.44;;;8.80;100.00
18988;BME280;5494;51.796;10.952;2022-12-29T00:40:55;97909.16;;;8.85;100.00
18988;BME280;5494;51.796;10.952;2022-12-29T00:43:42;97913.72;;;8.82;100.00
18988;BME280;5494;51.796;10.952;2022-12-29T00:46:27;97918.81;;;8.83;100.00
18988;BME280;5494;51.796;10.952;2022-12-29T00:48:55;97919.72;;;8.82;100.00
18988;BME280;5494;51.796;10.952;2022-12-29T00:51:43;97915.09;;;8.87;100.00
18988;BME280;5494;51.796;10.952;2022-12-29T00:54:12;97928.72;;;8.91;100.00
18988;BME280;5494;51.796;10.952;2022-12-29T00:56:40;97929.88;;;8.99;100.00
18988;BME280;5494;51.796;10.952;2022-12-29T00:59:10;97928.50;;;9.08;100.00
18988;BME280;5494;51.796;10.952;2022-12-29T01:01:39;97929.88;;;9.14;100.00
18988;BME280;5494;51.796;10.952;2022-12-29T01:04:09;97930.44;;;9.19;100.00
18988;BME280;5494;51.796;10.952;2022-12-29T01:06:39;97936.25;;;9.22;100.00
18988;BME280;5494;51.796;10.952;2022-12-29T01:09:09;97929.78;;;9.15;100.00
18988;BME280;5494;51.796;10.952;2022-12-29T01:11:55;97928.47;;;9.22;100.00
18988;BME280;5494;51.796;10.952;2022-12-29T01:14:27;97923.97;;;9.26;100.00
18988;BME280;5494;51.796;10.952;2022-12-29T01:16:56;97943.03;;;9.25;100.00
18988;BME280;5494;51.796;10.952;2022-12-29T01:19:25;97933.38;;;9.27;100.00
18988;BME280;5494;51.796;10.952;2022-12-29T01:21:55;97942.94;;;9.26;100.00
18988;BME280;5494;51.796;10.952;2022-12-29T01:24:23;97936.81;;;9.27;100.00
18988;BME280;5494;51.796;10.952;2022-12-29T01:26:52;97938.22;;;9.33;100.00
18988;BME280;5494;51.796;10.952;2022-12-29T01:29:21;97924.56;;;9.43;100.00
18988;BME280;5494;51.796;10.952;2022-12-29T01:31:50;97930.31;;;9.34;100.00
18988;BME280;5494;51.796;10.952;2022-12-29T01:34:18;97925.31;;;9.31;100.00
18988;BME280;5494;51.796;10.952;2022-12-29T01:36:46;97918.75;;;9.40;100.00
18988;BME280;5494;51.796;10.952;2022-12-29T01:39:15;97919.94;;;9.34;100.00
18988;BME280;5494;51.796;10.952;2022-12-29T01:41:43;97915.69;;;9.33;100.00
18988;BME280;5494;51.796;10.952;2022-12-29T01:44:51;97920.69;;;9.36;100.00
18988;BME280;5494;51.796;10.952;2022-12-29T01:47:34;97914.75;;;9.34;100.00
18988;BME280;5494;51.796;10.952;2022-12-29T01:50:10;97913.72;;;9.37;100.00
18988;BME280;5494;51.796;10.952;2022-12-29T01:52:44;97897.69;;;9.44;100.00
18988;BME280;5494;51.796;10.952;2022-12-29T01:55:16;97903.19;;;9.40;100.00
18988;BME280;5494;51.796;10.952;2022-12-29T01:57:50;97902.34;;;9.39;100.00
18988;BME280;5494;51.796;10.952;2022-12-29T02:00:20;97886.78;;;9.39;100.00
18988;BME280;5494;51.796;10.952;2022-12-29T02:02:53;97875.84;;;9.34;100.00
18988;BME280;5494;51.796;10.952;2022-12-29T02:05:27;97856.41;;;9.27;100.00
18988;BME280;5494;51.796;10.952;2022-12-29T02:07:57;97864.50;;;9.23;100.00
18988;BME280;5494;51.796;10.952;2022-12-29T02:10:30;97858.28;;;9.25;100.00
18988;BME280;5494;51.796;10.952;2022-12-29T02:12:59;97853.50;;;9.19;100.00
18988;BME280;5494;51.796;10.952;2022-12-29T02:15:38;97837.16;;;9.31;100.00
18988;BME280;5494;51.796;10.952;2022-12-29T02:18:31;97833.00;;;9.29;100.00
18988;BME280;5494;51.796;10.952;2022-12-29T02:21:38;97815.56;;;9.31;100.00
18988;BME280;5494;51.796;10.952;2022-12-29T02:27:50;97821.88;;;9.27;100.00
18988;BME280;5494;51.796;10.952;2022-12-29T02:30:45;97818.94;;;9.45;100.00
18988;BME280;5494;51.796;10.952;2022-12-29T02:33:31;97832.84;;;9.44;100.00
18988;BME280;5494;51.796;10.952;2022-12-29T02:36:12;97842.81;;;9.51;100.00
18988;BME280;5494;51.796;10.952;2022-12-29T02:38:56;97846.59;;;9.59;100.00
18988;BME280;5494;51.796;10.952;2022-12-29T02:41:32;97850.34;;;9.68;100.00
18988;BME280;5494;51.796;10.952;2022-12-29T02:44:13;97849.94;;;9.74;100.00
18988;BME280;5494;51.796;10.952;2022-12-29T02:46:52;97852.41;;;9.75;100.00
18988;BME280;5494;51.796;10.952;2022-12-29T02:49:30;97843.31;;;9.82;100.00
18988;BME280;5494;51.796;10.952;2022-12-29T02:52:05;97842.50;;;9.95;100.00
18988;BME280;5494;51.796;10.952;2022-12-29T02:54:36;97829.63;;;9.93;100.00
18988;BME280;5494;51.796;10.952;2022-12-29T02:57:26;97838.78;;;10.11;100.00
18988;BME280;5494;51.796;10.952;2022-12-29T03:00:01;97830.97;;;10.11;100.00
18988;BME280;5494;51.796;10.952;2022-12-29T03:03:14;97832.13;;;10.07;100.00
18988;BME280;5494;51.796;10.952;2022-12-29T03:06:06;97817.06;;;10.12;100.00
18988;BME280;5494;51.796;10.952;2022-12-29T03:08:48;97830.16;;;10.11;100.00
18988;BME280;5494;51.796;10.952;2022-12-29T03:11:17;97821.34;;;10.13;100.00
18988;BME280;5494;51.796;10.952;2022-12-29T03:14:14;97824.13;;;10.10;100.00
18988;BME280;5494;51.796;10.952;2022-12-29T03:17:08;97817.16;;;10.11;100.00
18988;BME280;5494;51.796;10.952;2022-12-29T03:19:44;97820.69;;;10.10;100.00
18988;BME280;5494;51.796;10.952;2022-12-29T03:22:20;97831.09;;;10.10;100.00
18988;BME280;5494;51.796;10.952;2022-12-29T03:25:15;97823.66;;;10.18;100.00
18988;BME280;5494;51.796;10.952;2022-12-29T03:27:51;97820.94;;;10.19;100.00
18988;BME280;5494;51.796;10.952;2022-12-29T03:30:21;97806.72;;;10.25;100.00
18988;BME280;5494;51.796;10.952;2022-12-29T03:32:53;97814.31;;;10.28;100.00
18988;BME280;5494;51.796;10.952;2022-12-29T03:35:30;97812.31;;;10.32;100.00
18988;BME280;5494;51.796;10.952;2022-12-29T03:38:09;97816.25;;;10.24;100.00
18988;BME280;5494;51.796;10.952;2022-12-29T03:40:43;97821.38;;;10.26;100.00
18988;BME280;5494;51.796;10.952;2022-12-29T03:43:14;97798.59;;;10.42;100.00
18988;BME280;5494;51.796;10.952;2022-12-29T03:45:45;97790.84;;;10.30;100.00
18988;BME280;5494;51.796;10.952;2022-12-29T03:48:13;97795.50;;;10.24;100.00
18988;BME280;5494;51.796;10.952;2022-12-29T03:50:42;97807.03;;;10.20;100.00
18988;BME280;5494;51.796;10.952;2022-12-29T03:53:10;97801.84;;;10.20;100.00
18988;BME280;5494;51.796;10.952;2022-12-29T03:55:38;97803.81;;;10.17;100.00
18988;BME280;5494;51.796;10.952;2022-12-29T03:58:07;97773.03;;;10.23;100.00
18988;BME280;5494;51.796;10.952;2022-12-29T04:00:48;97769.00;;;10.32;100.00
18988;BME280;5494;51.796;10.952;2022-12-29T04:03:17;97772.75;;;10.28;100.00
18988;BME280;5494;51.796;10.952;2022-12-29T04:05:46;97756.94;;;10.44;100.00
18988;BME280;5494;51.796;10.952;2022-12-29T04:08:14;97733.56;;;10.31;100.00
18988;BME280;5494;51.796;10.952;2022-12-29T04:10:42;97740.44;;;10.19;100.00
18988;BME280;5494;51.796;10.952;2022-12-29T04:13:12;97734.53;;;10.17;100.00
18988;BME280;5494;51.796;10.952;2022-12-29T04:15:42;97733.06;;;10.26;100.00
18988;BME280;5494;51.796;10.952;2022-12-29T04:18:10;97729.53;;;10.14;100.00
18988;BME280;5494;51.796;10.952;2022-12-29T04:20:38;97744.91;;;10.17;100.00
18988;BME280;5494;51.796;10.952;2022-12-29T04:23:26;97751.31;;;10.12;100.00
18988;BME280;5494;51.796;10.952;2022-12-29T04:25:54;97767.53;;;10.15;100.00
18988;BME280;5494;51.796;10.952;2022-12-29T04:28:22;97774.59;;;10.13;100.00
18988;BME280;5494;51.796;10.952;2022-12-29T04:31:05;97766.41;;;10.19;100.00
18988;BME280;5494;51.796;10.952;2022-12-29T04:33:35;97770.16;;;10.28;100.00
18988;BME280;5494;51.796;10.952;2022-12-29T04:36:04;97752.72;;;10.30;100.00
18988;BME280;5494;51.796;10.952;2022-12-29T04:38:36;97772.44;;;10.33;100.00
18988;BME280;5494;51.796;10.952;2022-12-29T04:41:05;97775.44;;;10.26;100.00
18988;BME280;5494;51.796;10.952;2022-12-29T04:43:35;97776.06;;;10.17;100.00
18988;BME280;5494;51.796;10.952;2022-12-29T04:46:21;97772.13;;;10.24;100.00
18988;BME280;5494;51.796;10.952;2022-12-29T04:48:58;97778.97;;;10.25;100.00
18988;BME280;5494;51.796;10.952;2022-12-29T04:51:45;97774.19;;;10.32;100.00
18988;BME280;5494;51.796;10.952;2022-12-29T04:54:16;97769.09;;;10.31;100.00
18988;BME280;5494;51.796;10.952;2022-12-29T04:56:49;97764.13;;;10.27;100.00
18988;BME280;5494;51.796;10.952;2022-12-29T04:59:20;97771.19;;;10.25;100.00
18988;BME280;5494;51.796;10.952;2022-12-29T05:01:51;97755.28;;;10.43;100.00
18988;BME280;5494;51.796;10.952;2022-12-29T05:04:20;97757.66;;;10.46;100.00
18988;BME280;5494;51.796;10.952;2022-12-29T05:06:48;97753.81;;;10.39;100.00
18988;BME280;5494;51.796;10.952;2022-12-29T05:09:18;97761.59;;;10.39;100.00
18988;BME280;5494;51.796;10.952;2022-12-29T05:11:46;97759.31;;;10.47;100.00
18988;BME280;5494;51.796;10.952;2022-12-29T05:14:14;97763.13;;;10.54;100.00
18988;BME280;5494;51.796;10.952;2022-12-29T05:16:44;97755.56;;;10.51;100.00
18988;BME280;5494;51.796;10.952;2022-12-29T05:19:12;97750.25;;;10.52;100.00
18988;BME280;5494;51.796;10.952;2022-12-29T05:21:40;97755.88;;;10.46;100.00
18988;BME280;5494;51.796;10.952;2022-12-29T05:24:09;97751.75;;;10.44;100.00
18988;BME280;5494;51.796;10.952;2022-12-29T05:26:39;97749.03;;;10.45;100.00
18988;BME280;5494;51.796;10.952;2022-12-29T05:29:25;97737.38;;;10.51;100.00
18988;BME280;5494;51.796;10.952;2022-12-29T05:31:54;97741.63;;;10.64;100.00
18988;BME280;5494;51.796;10.952;2022-12-29T05:34:22;97742.75;;;10.60;100.00
18988;BME280;5494;51.796;10.952;2022-12-29T05:36:50;97727.16;;;10.60;100.00
18988;BME280;5494;51.796;10.952;2022-12-29T05:39:18;97728.81;;;10.61;100.00
18988;BME280;5494;51.796;10.952;2022-12-29T05:41:53;97741.28;;;10.69;100.00
18988;BME280;5494;51.796;10.952;2022-12-29T05:44:28;97729.41;;;10.65;100.00
18988;BME280;5494;51.796;10.952;2022-12-29T05:47:15;97736.22;;;10.79;100.00
18988;BME280;5494;51.796;10.952;2022-12-29T05:49:50;97729.00;;;10.95;100.00
18988;BME280;5494;51.796;10.952;2022-12-29T05:52:28;97728.28;;;10.93;100.00
18988;BME280;5494;51.796;10.952;2022-12-29T05:54:56;97720.16;;;10.97;100.00
18988;BME280;5494;51.796;10.952;2022-12-29T05:57:27;97720.28;;;10.96;100.00
18988;BME280;5494;51.796;10.952;2022-12-29T06:00:09;97712.69;;;10.93;100.00
18988;BME280;5494;51.796;10.952;2022-12-29T06:02:40;97701.97;;;10.97;100.00
18988;BME280;5494;51.796;10.952;2022-12-29T06:05:09;97713.66;;;10.92;100.00
18988;BME280;5494;51.796;10.952;2022-12-29T06:07:38;97710.22;;;10.91;100.00
18988;BME280;5494;51.796;10.952;2022-12-29T06:10:07;97704.28;;;10.89;100.00
18988;BME280;5494;51.796;10.952;2022-12-29T06:12:44;97701.22;;;10.95;100.00
18988;BME280;5494;51.796;10.952;2022-12-29T06:15:14;97704.66;;;10.96;100.00
18988;BME280;5494;51.796;10.952;2022-12-29T06:17:43;97687.56;;;11.04;100.00
18988;BME280;5494;51.796;10.952;2022-12-29T06:20:11;97693.25;;;11.10;99.88
18988;BME280;5494;51.796;10.952;2022-12-29T06:22:40;97687.00;;;11.12;99.15
18988;BME280;5494;51.796;10.952;2022-12-29T06:25:09;97675.78;;;11.12;99.61
18988;BME280;5494;51.796;10.952;2022-12-29T06:27:37;97664.16;;;11.04;100.00
18988;BME280;5494;51.796;10.952;2022-12-29T06:30:09;97668.09;;;11.10;99.32
18988;BME280;5494;51.796;10.952;2022-12-29T06:32:39;97663.94;;;11.07;99.28
18988;BME280;5494;51.796;10.952;2022-12-29T06:35:09;97665.31;;;11.00;100.00
18988;BME280;5494;51.796;10.952;2022-12-29T06:37:43;97667.69;;;10.92;100.00
18988;BME280;5494;51.796;10.952;2022-12-29T06:40:11;97672.59;;;10.84;100.00
18988;BME280;5494;51.796;10.952;2022-12-29T06:42:58;97678.28;;;10.89;100.00
18988;BME280;5494;51.796;10.952;2022-12-29T06:45:42;97682.09;;;10.96;100.00
18988;BME280;5494;51.796;10.952;2022-12-29T06:48:11;97658.59;;;10.98;100.00
18988;BME280;5494;51.796;10.952;2022-12-29T06:50:38;97664.84;;;10.95;100.00
18988;BME280;5494;51.796;10.952;2022-12-29T06:53:07;97663.63;;;10.88;100.00
18988;BME280;5494;51.796;10.952;2022-12-29T06:55:35;97661.97;;;10.87;100.00
18988;BME280;5494;51.796;10.952;2022-12-29T06:58:03;97638.06;;;10.82;100.00
18988;BME280;5494;51.796;10.952;2022-12-29T07:00:31;97657.66;;;10.75;100.00
18988;BME280;5494;51.796;10.952;2022-12-29T07:03:00;97659.44;;;10.75;100.00
18988;BME280;5494;51.796;10.952;2022-12-29T07:05:29;97666.63;;;10.71;100.00
18988;BME280;5494;51.796;10.952;2022-12-29T07:07:59;97658.59;;;10.74;100.00
18988;BME280;5494;51.796;10.952;2022-12-29T07:10:28;97668.84;;;10.64;100.00
18988;BME280;5494;51.796;10.952;2022-12-29T07:12:56;97665.63;;;10.61;100.00
18988;BME280;5494;51.796;10.952;2022-12-29T07:15:24;97661.75;;;10.66;100.00
18988;BME280;5494;51.796;10.952;2022-12-29T07:17:52;97666.25;;;10.64;100.00
18988;BME280;5494;51.796;10.952;2022-12-29T07:20:21;97660.44;;;10.61;100.00
18988;BME280;5494;51.796;10.952;2022-12-29T07:22:53;97669.53;;;10.66;100.00
18988;BME280;5494;51.796;10.952;2022-12-29T07:25:21;97682.44;;;10.68;100.00
18988;BME280;5494;51.796;10.952;2022-12-29T07:27:49;97680.50;;;10.83;99.93
18988;BME280;5494;51.796;10.952;2022-12-29T07:30:17;97692.47;;;10.85;99.94
18988;BME280;5494;51.796;10.952;2022-12-29T07:32:45;97686.97;;;10.77;100.00
18988;BME280;5494;51.796;10.952;2022-12-29T07:35:13;97674.47;;;10.82;99.97
18988;BME280;5494;51.796;10.952;2022-12-29T07:37:44;97694.66;;;10.79;99.19
18988;BME280;5494;51.796;10.952;2022-12-29T07:40:13;97699.28;;;10.86;98.53
18988;BME280;5494;51.796;10.952;2022-12-29T07:42:41;97712.69;;;10.93;98.31
18988;BME280;5494;51.796;10.952;2022-12-29T07:45:10;97710.34;;;11.01;97.46
18988;BME280;5494;51.796;10.952;2022-12-29T07:48:03;97702.81;;;11.09;96.65
18988;BME280;5494;51.796;10.952;2022-12-29T07:50:31;97697.88;;;11.06;97.51
18988;BME280;5494;51.796;10.952;2022-12-29T07:53:01;97718.59;;;11.19;97.32
18988;BME280;5494;51.796;10.952;2022-12-29T07:55:29;97707.97;;;11.22;97.98
18988;BME280;5494;51.796;10.952;2022-12-29T07:57:58;97723.34;;;11.25;98.75
18988;BME280;5494;51.796;10.952;2022-12-29T08:00:26;97725.22;;;11.23;98.47
18988;BME280;5494;51.796;10.952;2022-12-29T08:02:54;97728.44;;;11.26;98.41
18988;BME280;5494;51.796;10.952;2022-12-29T08:05:22;97730.81;;;11.29;98.46
18988;BME280;5494;51.796;10.952;2022-12-29T08:07:50;97732.69;;;11.27;98.81
18988;BME280;5494;51.796;10.952;2022-12-29T08:10:20;97721.22;;;11.30;98.81
18988;BME280;5494;51.796;10.952;2022-12-29T08:12:48;97720.66;;;11.26;99.46
18988;BME280;5494;51.796;10.952;2022-12-29T08:15:17;97716.94;;;11.53;98.67
18988;BME280;5494;51.796;10.952;2022-12-29T08:17:45;97729.50;;;11.70;97.03
18988;BME280;5494;51.796;10.952;2022-12-29T08:20:13;97726.41;;;11.65;96.70
18988;BME280;5494;51.796;10.952;2022-12-29T08:22:41;97726.63;;;11.62;97.16
18988;BME280;5494;51.796;10.952;2022-12-29T08:25:08;97732.44;;;11.65;96.95
18988;BME280;5494;51.796;10.952;2022-12-29T08:27:38;97724.69;;;11.76;96.31
18988;BME280;5494;51.796;10.952;2022-12-29T08:30:08;97725.41;;;11.90;95.04
18988;BME280;5494;51.796;10.952;2022-12-29T08:32:36;97725.31;;;12.02;94.42
18988;BME280;5494;51.796;10.952;2022-12-29T08:35:05;97733.25;;;12.01;93.42
18988;BME280;5494;51.796;10.952;2022-12-29T08:37:33;97734.56;;;12.06;94.12
18988;BME280;5494;51.796;10.952;2022-12-29T08:40:02;97735.63;;;12.15;93.14
18988;BME280;5494;51.796;10.952;2022-12-29T08:42:30;97728.06;;;12.23;92.91
18988;BME280;5494;51.796;10.952;2022-12-29T08:45:00;97732.66;;;12.19;93.91
18988;BME280;5494;51.796;10.952;2022-12-29T08:47:28;97743.22;;;12.29;94.69
18988;BME280;5494;51.796;10.952;2022-12-29T08:49:56;97753.63;;;12.29;95.33
18988;BME280;5494;51.796;10.952;2022-12-29T08:52:24;97756.72;;;12.23;96.05
18988;BME280;5494;51.796;10.952;2022-12-29T08:54:52;97768.31;;;12.19;97.91
18988;BME280;5494;51.796;10.952;2022-12-29T08:57:20;97767.72;;;12.27;98.43
18988;BME280;5494;51.796;10.952;2022-12-29T09:00:13;97787.94;;;12.01;100.00
18988;BME280;5494;51.796;10.952;2022-12-29T09:02:41;97806.50;;;11.85;100.00
18988;BME280;5494;51.796;10.952;2022-12-29T09:05:10;97811.22;;;11.56;100.00
18988;BME280;5494;51.796;10.952;2022-12-29T09:07:38;97792.50;;;11.51;100.00
18988;BME280;5494;51.796;10.952;2022-12-29T09:10:06;97799.75;;;11.35;100.00
18988;BME280;5494;51.796;10.952;2022-12-29T09:12:34;97805.13;;;11.21;100.00
18988;BME280;5494;51.796;10.952;2022-12-29T09:15:04;97809.84;;;11.16;100.00
18988;BME280;5494;51.796;10.952;2022-12-29T09:17:34;97821.34;;;11.00;100.00
18988;BME280;5494;51.796;10.952;2022-12-29T09:20:14;97826.47;;;10.89;100.00
18988;BME280;5494;51.796;10.952;2022-12-29T09:22:43;97836.69;;;10.92;100.00
18988;BME280;5494;51.796;10.952;2022-12-29T09:25:12;97835.00;;;10.91;100.00
18988;BME280;5494;51.796;10.952;2022-12-29T09:27:40;97840.09;;;10.80;100.00
18988;BME280;5494;51.796;10.952;2022-12-29T09:30:12;97848.34;;;10.74;100.00
18988;BME280;5494;51.796;10.952;2022-12-29T09:32:42;97832.13;;;10.58;100.00
18988;BME280;5494;51.796;10.952;2022-12-29T09:35:14;97845.97;;;10.46;100.00
18988;BME280;5494;51.796;10.952;2022-12-29T09:37:43;97848.91;;;10.29;100.00
18988;BME280;5494;51.796;10.952;2022-12-29T09:40:26;97838.66;;;10.00;100.00
18988;BME280;5494;51.796;10.952;2022-12-29T09:43:21;97850.09;;;9.98;100.00
18988;BME280;5494;51.796;10.952;2022-12-29T09:46:00;97840.53;;;9.85;100.00
18988;BME280;5494;51.796;10.952;2022-12-29T09:48:41;97835.41;;;9.71;100.00
18988;BME280;5494;51.796;10.952;2022-12-29T09:51:18;97833.81;;;9.69;100.00
18988;BME280;5494;51.796;10.952;2022-12-29T09:53:55;97854.50;;;9.70;100.00
18988;BME280;5494;51.796;10.952;2022-12-29T09:56:26;97881.69;;;9.65;100.00
18988;BME280;5494;51.796;10.952;2022-12-29T09:59:00;97891.72;;;9.57;100.00
18988;BME280;5494;51.796;10.952;2022-12-29T10:01:35;97863.34;;;9.27;100.00
18988;BME280;5494;51.796;10.952;2022-12-29T10:04:06;97839.25;;;9.12;100.00
18988;BME280;5494;51.796;10.952;2022-12-29T10:06:44;97833.13;;;9.13;100.00
18988;BME280;5494;51.796;10.952;2022-12-29T10:09:47;97815.13;;;9.24;100.00
18988;BME280;5494;51.796;10.952;2022-12-29T10:12:34;97830.13;;;9.33;100.00
18988;BME280;5494;51.796;10.952;2022-12-29T10:15:18;97820.50;;;9.48;100.00
18988;BME280;5494;51.796;10.952;2022-12-29T10:18:05;97838.66;;;9.48;100.00
18988;BME280;5494;51.796;10.952;2022-12-29T10:20:52;97832.03;;;9.57;100.00
18988;BME280;5494;51.796;10.952;2022-12-29T10:23:33;97836.63;;;9.53;100.00
18988;BME280;5494;51.796;10.952;2022-12-29T10:26:10;97824.22;;;9.44;100.00
18988;BME280;5494;51.796;10.952;2022-12-29T10:28:45;97799.75;;;9.48;100.00
18988;BME280;5494;51.796;10.952;2022-12-29T10:31:20;97784.72;;;9.53;100.00
18988;BME280;5494;51.796;10.952;2022-12-29T10:33:53;97784.41;;;9.58;100.00
18988;BME280;5494;51.796;10.952;2022-12-29T10:36:33;97795.94;;;9.54;100.00
18988;BME280;5494;51.796;10.952;2022-12-29T10:39:13;97811.28;;;9.57;100.00
18988;BME280;5494;51.796;10.952;2022-12-29T10:41:50;97821.66;;;9.57;100.00
18988;BME280;5494;51.796;10.952;2022-12-29T10:44:20;97824.78;;;9.62;100.00
18988;BME280;5494;51.796;10.952;2022-12-29T10:46:57;97811.31;;;9.69;100.00
18988;BME280;5494;51.796;10.952;2022-12-29T10:49:28;97812.06;;;9.84;100.00
18988;BME280;5494;51.796;10.952;2022-12-29T10:52:03;97815.31;;;10.00;100.00
18988;BME280;5494;51.796;10.952;2022-12-29T10:54:39;97810.56;;;10.19;100.00
18988;BME280;5494;51.796;10.952;2022-12-29T10:57:22;97815.13;;;10.29;100.00
18988;BME280;5494;51.796;10.952;2022-12-29T10:59:52;97807.13;;;10.57;100.00
18988;BME280;5494;51.796;10.952;2022-12-29T11:02:42;97814.75;;;10.84;100.00
18988;BME280;5494;51.796;10.952;2022-12-29T11:05:22;97810.97;;;10.88;100.00
18988;BME280;5494;51.796;10.952;2022-12-29T11:07:59;97812.88;;;11.10;100.00
18988;BME280;5494;51.796;10.952;2022-12-29T11:10:35;97806.34;;;11.28;100.00
18988;BME280;5494;51.796;10.952;2022-12-29T11:13:15;97809.53;;;11.55;100.00
18988;BME280;5494;51.796;10.952;2022-12-29T11:15:46;97809.16;;;11.72;100.00
18988;BME280;5494;51.796;10.952;2022-12-29T11:18:21;97810.28;;;11.81;100.00
18988;BME280;5494;51.796;10.952;2022-12-29T11:20:52;97808.53;;;11.93;100.00
18988;BME280;5494;51.796;10.952;2022-12-29T11:23:27;97812.91;;;12.03;100.00
18988;BME280;5494;51.796;10.952;2022-12-29T11:26:19;97797.06;;;12.06;100.00
18988;BME280;5494;51.796;10.952;2022-12-29T11:29:11;97806.22;;;12.23;100.00
18988;BME280;5494;51.796;10.952;2022-12-29T11:31:47;97785.16;;;12.37;97.08
18988;BME280;5494;51.796;10.952;2022-12-29T11:34:22;97793.19;;;12.34;98.33
18988;BME280;5494;51.796;10.952;2022-12-29T11:36:58;97797.56;;;12.34;97.22
18988;BME280;5494;51.796;10.952;2022-12-29T11:39:40;97795.53;;;12.59;96.02
18988;BME280;5494;51.796;10.952;2022-12-29T11:42:16;97780.00;;;12.80;94.74
18988;BME280;5494;51.796;10.952;2022-12-29T11:44:47;97790.94;;;12.63;93.18
18988;BME280;5494;51.796;10.952;2022-12-29T11:47:29;97797.22;;;12.49;93.13
18988;BME280;5494;51.796;10.952;2022-12-29T11:50:01;97775.41;;;12.28;91.52
18988;BME280;5494;51.796;10.952;2022-12-29T11:52:34;97789.28;;;12.29;90.25
18988;BME280;5494;51.796;10.952;2022-12-29T11:55:20;97795.75;;;12.01;90.82
18988;BME280;5494;51.796;10.952;2022-12-29T11:57:50;97801.19;;;11.98;90.97
18988;BME280;5494;51.796;10.952;2022-12-29T12:00:22;97784.00;;;11.84;91.23
18988;BME280;5494;51.796;10.952;2022-12-29T12:02:58;97798.19;;;11.80;91.27
18988;BME280;5494;51.796;10.952;2022-12-29T12:05:39;97792.91;;;11.69;90.69
18988;BME280;5494;51.796;10.952;2022-12-29T12:08:16;97801.69;;;11.68;90.73
18988;BME280;5494;51.796;10.952;2022-12-29T12:10:55;97806.13;;;11.78;89.97
18988;BME280;5494;51.796;10.952;2022-12-29T12:13:36;97801.78;;;11.66;90.00
18988;BME280;5494;51.796;10.952;2022-12-29T12:16:12;97809.25;;;11.71;88.72
18988;BME280;5494;51.796;10.952;2022-12-29T12:18:49;97799.84;;;11.57;87.79
18988;BME280;5494;51.796;10.952;2022-12-29T12:21:27;97798.16;;;11.45;89.07
18988;BME280;5494;51.796;10.952;2022-12-29T12:24:23;97796.06;;;11.50;87.86
18988;BME280;5494;51.796;10.952;2022-12-29T12:27:02;97794.00;;;11.42;89.73
18988;BME280;5494;51.796;10.952;2022-12-29T12:29:39;97806.06;;;11.43;89.47
18988;BME280;5494;51.796;10.952;2022-12-29T12:32:17;97808.13;;;11.27;89.94
18988;BME280;5494;51.796;10.952;2022-12-29T12:34:48;97812.44;;;11.16;91.03
18988;BME280;5494;51.796;10.952;2022-12-29T12:37:46;97809.00;;;11.15;90.05
18988;BME280;5494;51.796;10.952;2022-12-29T12:43:42;97813.34;;;11.03;89.83
18988;BME280;5494;51.796;10.952;2022-12-29T12:46:31;97820.09;;;11.06;89.94
18988;BME280;5494;51.796;10.952;2022-12-29T12:52:14;97832.03;;;11.09;87.71
18988;BME280;5494;51.796;10.952;2022-12-29T12:55:13;97834.53;;;11.10;86.77
18988;BME280;5494;51.796;10.952;2022-12-29T12:57:57;97840.06;;;11.05;88.20
18988;BME280;5494;51.796;10.952;2022-12-29T13:00:43;97837.22;;;11.09;88.84
18988;BME280;5494;51.796;10.952;2022-12-29T13:03:30;97848.66;;;11.19;87.03
18988;BME280;5494;51.796;10.952;2022-12-29T13:06:20;97852.00;;;11.08;88.33
18988;BME280;5494;51.796;10.952;2022-12-29T13:09:10;97845.53;;;11.14;87.46
18988;BME280;5494;51.796;10.952;2022-12-29T13:12:00;97854.50;;;11.10;87.04
18988;BME280;5494;51.796;10.952;2022-12-29T13:14:42;97870.84;;;11.12;86.43
18988;BME280;5494;51.796;10.952;2022-12-29T13:17:26;97857.94;;;11.10;84.54
18988;BME280;5494;51.796;10.952;2022-12-29T13:20:07;97848.38;;;11.11;85.60
18988;BME280;5494;51.796;10.952;2022-12-29T13:22:48;97858.28;;;11.05;85.95
18988;BME280;5494;51.796;10.952;2022-12-29T13:25:32;97857.31;;;11.06;83.98
18988;BME280;5494;51.796;10.952;2022-12-29T13:28:09;97869.31;;;10.96;86.29
18988;BME280;5494;51.796;10.952;2022-12-29T13:30:52;97855.97;;;11.01;84.80
18988;BME280;5494;51.796;10.952;2022-12-29T13:33:30;97867.53;;;10.97;84.46
18988;BME280;5494;51.796;10.952;2022-12-29T13:36:08;97865.78;;;10.97;83.55
18988;BME280;5494;51.796;10.952;2022-12-29T13:38:43;97876.59;;;10.91;84.22
18988;BME280;5494;51.796;10.952;2022-12-29T13:41:25;97864.94;;;10.97;84.54
18988;BME280;5494;51.796;10.952;2022-12-29T13:43:57;97867.25;;;10.89;82.36
18988;BME280;5494;51.796;10.952;2022-12-29T13:46:31;97872.09;;;10.93;82.75